Terminal Aerodrome Forecast
Issued by NWS

Home | Current Version | Previous Version | Text Only | Print | Product List | Glossary Off
Versions: 1 2 3 4 5 6 7 8 9 10 11 12 13 14 15 16 17

000
FTUS43 KTOP 262300
TAFFOE
TAF
KFOE 262327Z 2700/2724 02005KT P6SM OVC080
     FM270300 02009KT P6SM -SHRA OVC023
     FM270600 01010KT 5SM -RA BR OVC012
     FM270900 36006KT 6SM BR BKN010
     FM271400 01006KT P6SM SCT025=

USA.gov is the U.S. government's official web portal to all federal, state and local government web resources and services.